createdAt,value
2022-12-01T00:01:34.267Z,1.12
2022-12-01T00:04:03.529Z,1.14
2022-12-01T00:06:31.962Z,1.14
2022-12-01T00:09:20.170Z,1.15
2022-12-01T00:11:49.020Z,1.15
2022-12-01T00:14:17.577Z,1.14
2022-12-01T00:16:46.153Z,1.14
2022-12-01T00:19:14.570Z,1.13
2022-12-01T00:21:42.612Z,1.12
2022-12-01T00:24:11.971Z,1.09
2022-12-01T00:26:40.029Z,1.05
2022-12-01T00:29:09.688Z,1.02
2022-12-01T00:31:37.949Z,0.98
2022-12-01T00:34:11.118Z,0.98
2022-12-01T00:36:39.744Z,1.01
2022-12-01T00:39:08.739Z,0.98
2022-12-01T00:41:36.916Z,1.01
2022-12-01T00:44:05.302Z,0.99
2022-12-01T00:46:33.744Z,0.96
2022-12-01T00:49:01.842Z,0.95
2022-12-01T00:51:30.232Z,0.92
2022-12-01T00:53:58.530Z,0.90
2022-12-01T00:56:26.494Z,0.91
2022-12-01T00:58:54.493Z,0.89
2022-12-01T01:01:23.076Z,0.91
2022-12-01T01:03:51.393Z,0.93
2022-12-01T01:06:19.270Z,0.93
2022-12-01T01:08:47.228Z,0.93
2022-12-01T01:11:15.301Z,0.95
2022-12-01T01:13:43.475Z,0.96
2022-12-01T01:16:17.736Z,0.92
2022-12-01T01:18:46.985Z,0.91
2022-12-01T01:21:18.067Z,0.91
2022-12-01T01:23:46.119Z,0.88
2022-12-01T01:26:21.048Z,0.87
2022-12-01T01:28:49.922Z,0.88
2022-12-01T01:31:21.056Z,0.89
2022-12-01T01:33:48.818Z,0.89
2022-12-01T01:36:18.062Z,0.86
2022-12-01T01:38:47.511Z,0.87
2022-12-01T01:41:15.494Z,0.86
2022-12-01T01:43:47.567Z,0.86
2022-12-01T01:46:22.753Z,0.85
2022-12-01T01:49:00.370Z,0.85
2022-12-01T01:51:38.659Z,0.86
2022-12-01T01:54:15.796Z,0.88
2022-12-01T01:56:45.330Z,0.91
2022-12-01T01:59:16.929Z,0.90
2022-12-01T02:01:49.008Z,0.85
2022-12-01T02:04:18.102Z,0.85
2022-12-01T02:06:46.415Z,0.87
2022-12-01T02:09:16.191Z,0.84
2022-12-01T02:11:50.404Z,0.81
2022-12-01T02:14:41.519Z,0.81
2022-12-01T02:17:47.024Z,0.77
2022-12-01T02:20:40.532Z,0.77
2022-12-01T02:23:23.493Z,0.74
2022-12-01T02:26:09.444Z,0.66
2022-12-01T02:28:51.851Z,0.65
2022-12-01T02:31:28.479Z,0.64
2022-12-01T02:34:02.955Z,0.63
2022-12-01T02:36:48.895Z,0.62
2022-12-01T02:39:26.014Z,0.61
2022-12-01T02:42:40.274Z,0.59
2022-12-01T02:45:15.029Z,0.59
2022-12-01T02:47:45.422Z,0.57
2022-12-01T02:50:13.897Z,0.55
2022-12-01T02:52:43.201Z,0.53
2022-12-01T02:55:13.320Z,0.57
2022-12-01T02:57:41.186Z,0.56
2022-12-01T03:00:13.601Z,0.54
2022-12-01T03:03:01.218Z,0.56
2022-12-01T03:05:45.337Z,0.51
2022-12-01T03:08:20.368Z,0.45
2022-12-01T03:10:58.782Z,0.42
2022-12-01T03:14:01.366Z,0.40
2022-12-01T03:16:44.282Z,0.33
2022-12-01T03:19:18.799Z,0.31
2022-12-01T03:21:56.808Z,0.31
2022-12-01T03:24:29.439Z,0.32
2022-12-01T03:27:00.216Z,0.35
2022-12-01T03:29:36.482Z,0.36
2022-12-01T03:32:13.069Z,0.38
2022-12-01T03:34:52.858Z,0.38
2022-12-01T03:37:28.146Z,0.38
2022-12-01T03:40:00.703Z,0.35
2022-12-01T03:42:31.655Z,0.36
2022-12-01T03:45:05.198Z,0.34
2022-12-01T03:47:37.319Z,0.35
2022-12-01T03:50:08.187Z,0.38
2022-12-01T03:53:00.470Z,0.41
2022-12-01T03:55:35.860Z,0.43
2022-12-01T03:58:13.720Z,0.45
2022-12-01T04:00:43.824Z,0.46
2022-12-01T04:03:18.929Z,0.48
2022-12-01T04:05:47.071Z,0.48
2022-12-01T04:08:15.241Z,0.46
2022-12-01T04:10:43.282Z,0.43
2022-12-01T04:13:22.849Z,0.43
2022-12-01T04:15:52.326Z,0.42
2022-12-01T04:18:21.124Z,0.40
2022-12-01T04:20:50.333Z,0.40
2022-12-01T04:23:36.861Z,0.41
2022-12-01T04:26:05.527Z,0.43
2022-12-01T04:28:34.119Z,0.44
2022-12-01T04:31:02.099Z,0.43
2022-12-01T04:33:30.046Z,0.37
2022-12-01T04:35:59.650Z,0.36
2022-12-01T04:38:30.848Z,0.32
2022-12-01T04:40:59.070Z,0.30
2022-12-01T04:43:27.144Z,0.30
2022-12-01T04:45:55.157Z,0.32
2022-12-01T04:48:23.090Z,0.32
2022-12-01T04:50:51.158Z,0.31
2022-12-01T04:53:19.238Z,0.32
2022-12-01T04:55:47.097Z,0.29
2022-12-01T04:58:15.002Z,0.26
2022-12-01T05:00:42.998Z,0.23
2022-12-01T05:03:15.043Z,0.25
2022-12-01T05:05:43.588Z,0.23
2022-12-01T05:08:11.846Z,0.19
2022-12-01T05:10:39.814Z,0.15
2022-12-01T05:13:07.962Z,0.13
2022-12-01T05:15:36.142Z,0.10
2022-12-01T05:18:04.189Z,0.07
2022-12-01T05:20:50.940Z,0.03
2022-12-01T05:23:19.011Z,-0.04
2022-12-01T05:25:46.872Z,-0.08
2022-12-01T05:28:14.749Z,-0.06
2022-12-01T05:30:43.416Z,-0.02
2022-12-01T05:33:11.602Z,0.02
2022-12-01T05:35:39.564Z,0.08
2022-12-01T05:38:08.354Z,0.13
2022-12-01T05:40:37.170Z,0.16
2022-12-01T05:43:05.644Z,0.22
2022-12-01T05:45:34.858Z,0.28
2022-12-01T05:48:02.947Z,0.28
2022-12-01T05:50:31.741Z,0.31
2022-12-01T05:52:59.983Z,0.34
2022-12-01T05:55:27.828Z,0.29
2022-12-01T05:57:55.916Z,0.25
2022-12-01T06:00:24.183Z,0.20
2022-12-01T06:02:52.130Z,0.17
2022-12-01T06:05:20.368Z,0.18
2022-12-01T06:07:48.286Z,0.24
2022-12-01T06:10:16.865Z,0.26
2022-12-01T06:12:44.835Z,0.29
2022-12-01T06:15:14.167Z,0.30
2022-12-01T06:17:42.432Z,0.31
2022-12-01T06:20:11.472Z,0.32
2022-12-01T06:22:39.528Z,0.32
2022-12-01T06:25:07.878Z,0.32
2022-12-01T06:27:35.927Z,0.31
2022-12-01T06:30:05.170Z,0.25
2022-12-01T06:32:33.119Z,0.23
2022-12-01T06:35:01.051Z,0.22
2022-12-01T06:37:29.004Z,0.25
2022-12-01T06:39:56.841Z,0.29
2022-12-01T06:42:24.877Z,0.34
2022-12-01T06:44:53.091Z,0.38
2022-12-01T06:47:21.079Z,0.41
2022-12-01T06:49:49.255Z,0.42
2022-12-01T06:52:17.372Z,0.46
2022-12-01T06:54:45.468Z,0.51
2022-12-01T06:57:13.992Z,0.57
2022-12-01T06:59:42.348Z,0.61
2022-12-01T07:02:14.040Z,0.63
2022-12-01T07:04:41.997Z,0.70
2022-12-01T07:07:11.254Z,0.77
2022-12-01T07:09:39.822Z,0.81
2022-12-01T07:12:07.778Z,0.83
2022-12-01T07:14:36.188Z,0.89
2022-12-01T07:17:04.240Z,0.91
2022-12-01T07:19:32.628Z,0.95
2022-12-01T07:22:00.500Z,0.95
2022-12-01T07:24:29.784Z,0.96
2022-12-01T07:26:57.761Z,0.97
2022-12-01T07:29:25.820Z,0.94
2022-12-01T07:31:53.607Z,0.94
2022-12-01T07:34:23.923Z,0.97
2022-12-01T07:36:52.360Z,1.01
2022-12-01T07:39:20.527Z,1.04
2022-12-01T07:41:49.013Z,1.12
2022-12-01T07:44:17.387Z,1.19
2022-12-01T07:46:45.294Z,1.19
2022-12-01T07:49:15.695Z,1.23
2022-12-01T07:51:43.613Z,1.29
2022-12-01T07:54:14.348Z,1.34
2022-12-01T07:56:42.766Z,1.39
2022-12-01T07:59:12.037Z,1.47
2022-12-01T08:01:44.215Z,1.51
2022-12-01T08:04:13.215Z,1.55
2022-12-01T08:06:41.154Z,1.56
2022-12-01T08:09:09.342Z,1.62
2022-12-01T08:11:37.167Z,1.68
2022-12-01T08:14:05.118Z,1.72
2022-12-01T08:16:32.961Z,1.75
2022-12-01T08:19:00.830Z,1.83
2022-12-01T08:21:28.859Z,1.90
2022-12-01T08:23:58.055Z,1.94
2022-12-01T08:26:26.968Z,1.97
2022-12-01T08:28:55.536Z,2.04
2022-12-01T08:31:27.458Z,2.09
2022-12-01T08:33:56.237Z,2.13
2022-12-01T08:36:25.438Z,2.17
2022-12-01T08:38:55.408Z,2.16
2022-12-01T08:41:24.695Z,2.17
2022-12-01T08:44:01.303Z,2.19
2022-12-01T08:46:34.260Z,2.18
2022-12-01T08:49:04.763Z,2.18
2022-12-01T08:51:33.423Z,2.24
2022-12-01T08:54:01.314Z,2.30
2022-12-01T08:56:31.217Z,2.31
2022-12-01T08:58:59.190Z,2.35
2022-12-01T09:01:28.101Z,2.41
2022-12-01T09:04:08.486Z,2.50
2022-12-01T09:06:42.998Z,2.58
2022-12-01T09:09:16.507Z,2.65
2022-12-01T09:11:45.184Z,2.70
2022-12-01T09:14:15.278Z,2.71
2022-12-01T09:16:44.919Z,2.70
2022-12-01T09:19:17.922Z,2.75
2022-12-01T09:21:50.181Z,2.82
2022-12-01T09:24:18.136Z,2.89
2022-12-01T09:26:45.979Z,2.99
2022-12-01T09:29:15.565Z,3.10
2022-12-01T09:31:43.928Z,3.20
2022-12-01T09:34:19.983Z,3.31
2022-12-01T09:36:48.546Z,3.39
2022-12-01T09:39:19.970Z,3.47
2022-12-01T09:41:56.393Z,3.54
2022-12-01T09:44:30.334Z,3.64
2022-12-01T09:47:26.581Z,3.72
2022-12-01T09:50:25.294Z,3.79
2022-12-01T09:53:03.104Z,3.86
2022-12-01T09:55:32.206Z,3.90
2022-12-01T09:58:02.637Z,3.98
2022-12-01T10:00:38.304Z,4.06
2022-12-01T10:03:09.860Z,4.13
2022-12-01T10:06:18.543Z,4.17
2022-12-01T10:08:45.337Z,4.21
2022-12-01T10:11:35.666Z,4.24
2022-12-01T10:14:04.632Z,4.27
2022-12-01T10:16:51.214Z,4.31
2022-12-01T10:19:35.529Z,4.35
2022-12-01T10:22:29.704Z,4.40
2022-12-01T10:25:23.697Z,4.42
2022-12-01T10:28:25.270Z,4.42
2022-12-01T10:31:15.566Z,4.43
2022-12-01T10:34:12.856Z,4.44
2022-12-01T10:36:41.201Z,4.48
2022-12-01T10:39:24.195Z,4.51
2022-12-01T10:41:52.606Z,4.51
2022-12-01T10:45:33.677Z,4.52
2022-12-01T10:48:11.093Z,4.53
2022-12-01T10:50:39.264Z,4.58
2022-12-01T10:53:07.261Z,4.65
2022-12-01T10:55:43.496Z,4.68
2022-12-01T10:58:19.027Z,4.70
2022-12-01T11:01:00.058Z,4.68
2022-12-01T11:03:36.244Z,4.56
2022-12-01T11:06:06.942Z,4.56
2022-12-01T11:08:45.737Z,4.54
2022-12-01T11:11:36.826Z,4.55
2022-12-01T11:14:18.965Z,4.56
2022-12-01T11:16:49.678Z,4.53
2022-12-01T11:19:32.857Z,4.59
2022-12-01T11:22:18.866Z,4.63
2022-12-01T11:24:52.939Z,4.63
2022-12-01T11:27:57.629Z,4.62
2022-12-01T11:30:29.528Z,4.63
2022-12-01T11:33:03.214Z,4.68
2022-12-01T11:35:35.812Z,4.70
2022-12-01T11:41:00.420Z,4.74
2022-12-01T11:43:37.414Z,4.71
2022-12-01T11:46:09.111Z,4.65
2022-12-01T11:48:37.129Z,4.64
2022-12-01T11:51:04.988Z,4.61
2022-12-01T11:53:37.259Z,4.59
2022-12-01T11:56:25.265Z,4.55
2022-12-01T11:59:09.443Z,4.51
2022-12-01T12:01:59.091Z,4.50
2022-12-01T12:04:36.408Z,4.47
2022-12-01T12:07:43.244Z,4.42
2022-12-01T12:10:27.848Z,4.40
2022-12-01T12:13:04.789Z,4.38
2022-12-01T12:16:11.449Z,4.39
2022-12-01T12:22:37.255Z,4.47
2022-12-01T12:25:27.555Z,4.45
2022-12-01T12:28:13.221Z,4.46
2022-12-01T12:31:03.821Z,4.43
2022-12-01T12:33:41.406Z,4.43
2022-12-01T12:36:15.472Z,4.43
2022-12-01T12:38:49.169Z,4.41
2022-12-01T12:41:39.465Z,4.39
2022-12-01T12:44:13.374Z,4.38
2022-12-01T12:46:44.624Z,4.34
2022-12-01T12:49:44.635Z,4.34
2022-12-01T12:52:36.670Z,4.30
2022-12-01T12:55:15.598Z,4.26
2022-12-01T12:57:53.092Z,4.25
2022-12-01T13:00:29.451Z,4.25
2022-12-01T13:03:15.446Z,4.27
2022-12-01T13:06:07.271Z,4.27
2022-12-01T13:08:50.453Z,4.27
2022-12-01T13:11:33.416Z,4.29
2022-12-01T13:14:10.155Z,4.26
2022-12-01T13:16:42.507Z,4.24
2022-12-01T13:19:33.782Z,4.21
2022-12-01T13:22:03.005Z,4.19
2022-12-01T13:24:31.440Z,4.16
2022-12-01T13:27:07.867Z,4.09
2022-12-01T13:29:43.701Z,4.07
2022-12-01T13:32:27.881Z,4.07
2022-12-01T13:34:56.803Z,4.02
2022-12-01T13:37:31.716Z,3.99
2022-12-01T13:40:23.851Z,4.03
2022-12-01T13:42:58.079Z,4.02
2022-12-01T13:45:32.898Z,3.98
2022-12-01T13:48:02.636Z,3.97
2022-12-01T13:50:46.158Z,3.97
2022-12-01T13:53:34.976Z,3.95
2022-12-01T13:56:02.767Z,3.95
2022-12-01T13:58:33.713Z,3.96
2022-12-01T14:01:19.897Z,3.99
2022-12-01T14:04:20.835Z,3.96
2022-12-01T14:06:50.500Z,3.98
2022-12-01T14:09:24.254Z,3.98
2022-12-01T14:12:18.642Z,3.99
2022-12-01T14:14:58.066Z,4.02
2022-12-01T14:17:37.317Z,4.03
2022-12-01T14:20:14.724Z,4.04
2022-12-01T14:22:49.390Z,4.04
2022-12-01T14:25:20.735Z,4.01
2022-12-01T14:27:51.866Z,3.99
2022-12-01T14:30:38.509Z,3.96
2022-12-01T14:33:44.984Z,3.93
2022-12-01T14:36:27.053Z,3.92
2022-12-01T14:38:58.224Z,3.92
2022-12-01T14:41:38.416Z,3.90
2022-12-01T14:44:16.414Z,3.88
2022-12-01T14:46:51.661Z,3.87
2022-12-01T14:49:32.011Z,3.84
2022-12-01T14:52:07.077Z,3.80
2022-12-01T14:54:44.167Z,3.76
2022-12-01T14:57:17.271Z,3.75
2022-12-01T14:59:45.440Z,3.74
2022-12-01T15:02:14.054Z,3.71
2022-12-01T15:05:09.790Z,3.67
2022-12-01T15:07:40.507Z,3.65
2022-12-01T15:10:35.504Z,3.62
2022-12-01T15:13:28.577Z,3.61
2022-12-01T15:16:05.749Z,3.58
2022-12-01T15:18:36.876Z,3.54
2022-12-01T15:21:19.635Z,3.52
2022-12-01T15:23:59.685Z,3.52
2022-12-01T15:26:46.538Z,3.53
2022-12-01T15:29:31.609Z,3.54
2022-12-01T15:32:07.429Z,3.51
2022-12-01T15:34:39.966Z,3.50
2022-12-01T15:37:13.441Z,3.48
2022-12-01T15:40:00.867Z,3.45
2022-12-01T15:42:40.449Z,3.43
2022-12-01T15:45:22.632Z,3.39
2022-12-01T15:47:56.760Z,3.37
2022-12-01T15:50:46.221Z,3.34
2022-12-01T15:53:25.160Z,3.32
2022-12-01T15:55:58.739Z,3.31
2022-12-01T15:58:30.510Z,3.29
2022-12-01T16:01:01.519Z,3.27
2022-12-01T16:03:29.825Z,3.22
2022-12-01T16:05:58.515Z,3.19
2022-12-01T16:08:28.286Z,3.17
2022-12-01T16:11:13.599Z,3.14
2022-12-01T16:13:58.224Z,3.10
2022-12-01T16:16:49.332Z,3.04
2022-12-01T16:19:17.228Z,2.98
2022-12-01T16:22:03.193Z,2.95
2022-12-01T16:24:51.019Z,2.92
2022-12-01T16:27:26.835Z,2.91
2022-12-01T16:30:04.426Z,2.88
2022-12-01T16:32:36.270Z,2.86
2022-12-01T16:35:07.014Z,2.82
2022-12-01T16:37:34.916Z,2.78
2022-12-01T16:40:05.819Z,2.77
2022-12-01T16:42:33.692Z,2.76
2022-12-01T16:45:01.602Z,2.73
2022-12-01T16:47:32.442Z,2.68
2022-12-01T16:50:00.577Z,2.63
2022-12-01T16:52:45.382Z,2.61
2022-12-01T16:55:36.080Z,2.62
2022-12-01T16:58:04.450Z,2.59
2022-12-01T17:00:32.930Z,2.52
2022-12-01T17:03:00.893Z,2.50
2022-12-01T17:05:28.855Z,2.48
2022-12-01T17:07:56.967Z,2.43
2022-12-01T17:10:25.198Z,2.37
2022-12-01T17:12:53.148Z,2.31
2022-12-01T17:15:21.239Z,2.32
2022-12-01T17:17:50.013Z,2.30
2022-12-01T17:20:17.997Z,2.24
2022-12-01T17:22:45.978Z,2.22
2022-12-01T17:25:14.115Z,2.19
2022-12-01T17:27:43.786Z,2.21
2022-12-01T17:30:12.655Z,2.20
2022-12-01T17:32:40.477Z,2.20
2022-12-01T17:35:09.501Z,2.18
2022-12-01T17:37:37.444Z,2.15
2022-12-01T17:40:07.388Z,2.14
2022-12-01T17:42:35.254Z,2.15
2022-12-01T17:45:03.186Z,2.12
2022-12-01T17:47:31.069Z,2.08
2022-12-01T17:49:59.011Z,2.08
2022-12-01T17:52:28.674Z,2.08
2022-12-01T17:54:56.912Z,2.08
2022-12-01T17:57:25.126Z,2.05
2022-12-01T17:59:53.073Z,2.05
2022-12-01T18:02:21.149Z,2.05
2022-12-01T18:04:49.599Z,2.02
2022-12-01T18:07:17.863Z,2.01
2022-12-01T18:09:45.768Z,1.99
2022-12-01T18:12:13.572Z,1.95
2022-12-01T18:14:41.408Z,1.87
2022-12-01T18:17:09.297Z,1.80
2022-12-01T18:19:37.218Z,1.74
2022-12-01T18:22:05.160Z,1.68
2022-12-01T18:24:33.339Z,1.68
2022-12-01T18:27:01.125Z,1.70
2022-12-01T18:29:29.008Z,1.71
2022-12-01T18:31:58.682Z,1.68
2022-12-01T18:34:29.540Z,1.65
2022-12-01T18:36:58.409Z,1.63
2022-12-01T18:39:26.275Z,1.65
2022-12-01T18:41:54.625Z,1.66
2022-12-01T18:44:22.590Z,1.65
2022-12-01T18:46:50.634Z,1.60
2022-12-01T18:49:18.656Z,1.58
2022-12-01T18:51:46.556Z,1.58
2022-12-01T18:54:15.838Z,1.56
2022-12-01T18:56:43.981Z,1.52
2022-12-01T18:59:13.783Z,1.48
2022-12-01T19:01:44.278Z,1.43
2022-12-01T19:04:14.697Z,1.41
2022-12-01T19:06:44.109Z,1.40
2022-12-01T19:09:13.880Z,1.40
2022-12-01T19:11:43.266Z,1.39
2022-12-01T19:14:15.612Z,1.38
2022-12-01T19:16:44.996Z,1.39
2022-12-01T19:19:13.221Z,1.36
2022-12-01T19:21:41.190Z,1.31
2022-12-01T19:24:10.094Z,1.29
2022-12-01T19:26:38.331Z,1.29
2022-12-01T19:29:06.325Z,1.26
2022-12-01T19:31:35.040Z,1.24
2022-12-01T19:34:04.830Z,1.25
2022-12-01T19:36:33.308Z,1.22
2022-12-01T19:39:03.950Z,1.15
2022-12-01T19:41:38.734Z,1.15
2022-12-01T19:44:07.314Z,1.14
2022-12-01T19:46:35.327Z,1.14
2022-12-01T19:49:04.205Z,1.13
2022-12-01T19:51:37.775Z,1.10
2022-12-01T19:54:10.952Z,1.07
2022-12-01T19:56:38.877Z,1.08
2022-12-01T19:59:08.024Z,1.09
2022-12-01T20:01:36.396Z,1.07
2022-12-01T20:04:05.145Z,1.10
2022-12-01T20:06:35.957Z,1.16
2022-12-01T20:09:06.216Z,1.15
2022-12-01T20:11:35.526Z,1.13
2022-12-01T20:14:05.758Z,1.10
2022-12-01T20:16:34.185Z,1.04
2022-12-01T20:19:04.262Z,1.02
2022-12-01T20:21:39.367Z,1.01
2022-12-01T20:24:08.772Z,1.02
2022-12-01T20:26:39.956Z,1.03
2022-12-01T20:29:19.576Z,1.05
2022-12-01T20:31:48.602Z,1.02
2022-12-01T20:34:23.665Z,1.03
2022-12-01T20:36:53.174Z,1.03
2022-12-01T20:39:21.600Z,1.04
2022-12-01T20:41:50.247Z,1.01
2022-12-01T20:44:19.227Z,1.00
2022-12-01T20:46:47.748Z,0.99
2022-12-01T20:49:17.553Z,0.99
2022-12-01T20:51:46.918Z,0.99
2022-12-01T20:54:27.892Z,0.95
2022-12-01T20:56:57.682Z,0.94
2022-12-01T20:59:26.461Z,0.96
2022-12-01T21:01:55.235Z,0.98
2022-12-01T21:04:23.220Z,0.91
2022-12-01T21:06:51.309Z,0.91
2022-12-01T21:09:19.194Z,0.91
2022-12-01T21:12:09.278Z,0.90
2022-12-01T21:14:42.529Z,0.89
2022-12-01T21:17:33.299Z,0.87
2022-12-01T21:20:21.935Z,0.86
2022-12-01T21:22:51.518Z,0.90
2022-12-01T21:25:22.891Z,0.94
2022-12-01T21:27:51.755Z,0.99
2022-12-01T21:30:22.315Z,1.07
2022-12-01T21:32:50.682Z,1.11
2022-12-01T21:35:21.824Z,1.13
2022-12-01T21:37:53.453Z,1.15
2022-12-01T21:40:24.475Z,1.19
2022-12-01T21:42:53.212Z,1.21
2022-12-01T21:45:29.888Z,1.25
2022-12-01T21:48:05.894Z,1.29
2022-12-01T21:50:33.810Z,1.27
2022-12-01T21:53:01.719Z,1.23
2022-12-01T21:55:35.839Z,1.19
2022-12-01T21:58:30.203Z,1.19
2022-12-01T22:00:59.900Z,1.25
2022-12-01T22:03:43.390Z,1.29
2022-12-01T22:06:29.798Z,1.30
2022-12-01T22:09:21.106Z,1.34
2022-12-01T22:12:17.080Z,1.38
2022-12-01T22:14:44.914Z,1.40
2022-12-01T22:17:20.435Z,1.46
2022-12-01T22:20:00.493Z,1.49
2022-12-01T22:22:30.535Z,1.50
2022-12-01T22:25:07.390Z,1.55
2022-12-01T22:27:40.277Z,1.60
2022-12-01T22:30:08.168Z,1.61
2022-12-01T22:32:36.116Z,1.58
2022-12-01T22:35:35.230Z,1.56
2022-12-01T22:38:06.157Z,1.57
2022-12-01T22:40:43.022Z,1.56
2022-12-01T22:43:17.197Z,1.56
2022-12-01T22:45:51.933Z,1.58
2022-12-01T22:48:27.513Z,1.58
2022-12-01T22:51:14.936Z,1.60
2022-12-01T22:53:45.537Z,1.62
2022-12-01T22:56:35.348Z,1.63
2022-12-01T22:59:15.136Z,1.63
2022-12-01T23:02:35.871Z,1.59
2022-12-01T23:05:25.989Z,1.56
2022-12-01T23:07:55.137Z,1.53
2022-12-01T23:10:24.480Z,1.49
2022-12-01T23:12:54.883Z,1.52
2022-12-01T23:15:37.508Z,1.52
2022-12-01T23:18:23.615Z,1.48
2022-12-01T23:20:54.345Z,1.45
2022-12-01T23:23:28.199Z,1.48
2022-12-01T23:25:57.143Z,1.48
2022-12-01T23:28:25.418Z,1.47
2022-12-01T23:30:56.954Z,1.45
2022-12-01T23:33:28.216Z,1.48
2022-12-01T23:36:03.970Z,1.47
2022-12-01T23:38:36.038Z,1.43
2022-12-01T23:41:13.802Z,1.45
2022-12-01T23:43:44.935Z,1.48
2022-12-01T23:46:12.787Z,1.43
2022-12-01T23:48:45.349Z,1.41
2022-12-01T23:51:37.346Z,1.44
2022-12-01T23:54:19.060Z,1.44
2022-12-01T23:56:52.153Z,1.44
2022-12-01T23:59:21.016Z,1.45
